Latest Weather Observations for Marble Bar

IDW60801

Issued at 11:33 pm WST Wednesday 19 December 2018 (issued every 10 minutes, with the page automatically refreshed every 10 minutes)

About weather observations | Map of weather stations | Latest weather observations for WA | Other Formats
Station Details ID: 004106 Name: MARBLE BAR Lat: -21.18 Lon: 119.75 Height: 182.3 m
Data from the previous 72 hours. | See also: Recent months at Marble Bar
Date/Time
WST
Temp
°C
App
Temp
°C
Dew
Point
°C
Rel
Hum
%
Delta-T
°C
Wind Press
QNH
hPa
Press
MSL
hPa
Rain since
9am
mm
Dir  Spd
km/h
Gust
km/h
Spd
kts
Gust
kts
19/11:30pm 28.1 28.2 16.4 49 7.3 NNW 11 15 6 8 1010.3 1008.8 0.0
19/11:00pm 28.4 29.1 17.0 50 7.2 NNW 9 17 5 9 1010.5 1009.0 0.0
19/10:30pm 28.4 30.0 19.1 57 6.1 NNW 9 15 5 8 1010.6 1009.1 0.0
19/10:00pm 28.8 29.5 18.9 55 6.4 NNW 13 19 7 10 1010.6 1009.1 0.0
19/09:30pm 29.4 29.7 18.8 53 6.9 NNW 15 24 8 13 1010.5 1009.0 0.0
19/09:00pm 30.1 29.7 18.8 50 7.4 N 19 24 10 13 1010.1 1008.6 0.0
19/08:30pm 30.9 30.7 18.6 48 8.0 NNW 17 24 9 13 1009.9 1008.3 0.0
19/08:00pm 31.6 31.4 18.6 46 8.5 NNW 17 24 9 13 1009.6 1008.0 0.0
19/07:30pm 32.7 31.8 17.7 40 9.7 NNW 19 30 10 16 1009.2 1007.6 0.0
19/07:00pm 33.5 32.4 17.2 37 10.5 NNW 19 26 10 14 1008.9 1007.3 0.0
19/06:30pm 34.7 32.5 17.0 35 11.4 NNW 24 35 13 19 1008.4 1006.8 0.0
19/06:00pm 37.1 34.5 15.0 27 14.0 NNW 22 33 12 18 1007.7 1006.1 0.0
19/05:30pm 39.3 36.6 5.8 13 18.7 NNW 9 19 5 10 1007.4 1005.8 0.0
19/05:00pm 39.6 37.0 6.1 13 18.8 N 9 17 5 9 1007.3 1005.7 0.0
19/04:30pm 40.1 36.2 5.3 12 19.3 N 15 26 8 14 1007.2 1005.6 0.0
19/04:00pm 39.9 37.3 6.3 13 19.0 NNE 9 17 5 9 1007.1 1005.5 0.0
19/03:30pm 40.9 38.5 7.1 13 19.4 NNE 9 20 5 11 1007.1 1005.5 0.0
19/03:00pm 39.8 36.5 6.2 13 18.9 N 13 22 7 12 1007.3 1005.7 0.0
19/02:30pm 40.3 36.5 7.7 14 18.8 N 17 28 9 15 1007.6 1006.0 0.0
19/02:00pm 39.5 38.0 9.0 16 17.9 E 7 32 4 17 1007.9 1006.3 0.0
19/01:30pm 40.0 38.0 8.5 15 18.3 NNE 9 22 5 12 1008.3 1006.7 0.0
19/01:00pm 39.0 36.2 8.6 16 17.7 NNE 13 30 7 16 1008.8 1007.2 0.0
19/12:30pm 38.2 35.9 8.9 17 17.0 ENE 11 22 6 12 1009.1 1007.5 0.0
19/12:00pm 38.0 36.6 9.6 18 16.7 ENE 7 22 4 12 1009.3 1007.7 0.0
19/11:30am 37.8 36.6 10.2 19 16.3 E 7 22 4 12 1009.6 1008.0 0.0
19/11:00am 36.2 34.9 11.1 22 15.0 NE 9 15 5 8 1009.8 1008.2 0.0
19/10:30am 36.0 34.2 9.5 20 15.4 SSE 9 19 5 10 1010.1 1008.6 0.0
19/10:00am 35.7 34.4 9.3 20 15.3 N 6 13 3 7 1010.4 1008.9 0.0
19/09:30am 34.3 33.6 10.2 23 14.0 ESE 4 9 2 5 1010.6 1009.1 0.0
19/09:00am 33.1 32.3 11.0 26 13.0 NE 6 9 3 5 1010.7 1009.2 0.0
19/08:30am 32.8 33.0 11.9 28 12.4 E 2 7 1 4 1010.7 1009.2 0.0
19/08:00am 30.2 30.6 12.6 34 10.5 NNW 2 6 1 3 1010.7 1009.2 0.0
19/07:30am 29.9 30.4 14.0 37 9.6 ENE 4 7 2 4 1010.5 1009.0 0.0
19/07:00am 28.8 30.3 14.6 42 8.7 CALM 0 4 0 2 1010.4 1008.9 0.0
19/06:30am 27.1 28.9 16.4 52 6.7 SE 2 4 1 2 1010.3 1008.8 0.0
19/06:00am 24.8 26.7 15.7 57 5.6 CALM 0 0 0 0 1010.1 1008.6 0.0
19/05:30am 22.9 24.4 14.7 60 4.9 CALM 0 0 0 0 1009.9 1008.3 0.0
19/05:00am 23.1 24.6 14.7 59 5.0 CALM 0 0 0 0 1009.5 1007.9 0.0
19/04:30am 23.9 24.4 14.9 57 5.4 ENE 6 9 3 5 1009.2 1007.6 0.0
19/04:00am 23.8 24.5 14.5 56 5.6 NE 4 6 2 3 1008.9 1007.3 0.0
19/03:30am 23.8 25.0 13.9 54 5.8 CALM 0 2 0 1 1008.7 1007.1 0.0
19/03:00am 24.1 25.2 14.5 55 5.7 ENE 2 2 1 1 1008.8 1007.2 0.0
19/02:30am 24.6 26.1 14.7 54 5.9 CALM 0 0 0 0 1009.0 1007.4 0.0
19/02:00am 25.2 26.8 14.9 52 6.2 CALM 0 0 0 0 1008.9 1007.3 0.0
19/01:30am 26.1 27.0 15.2 51 6.6 WNW 4 6 2 3 1009.1 1007.5 0.0
19/01:00am 26.6 27.4 15.9 51 6.6 W 6 9 3 5 1009.3 1007.7 0.0
19/12:30am 26.8 27.9 15.5 50 6.9 WNW 4 7 2 4 1009.4 1007.8 0.0
19/12:00am 27.0 28.2 16.0 51 6.8 W 4 6 2 3 1009.4 1007.8 0.0
 
Date/Time
WST
Temp
°C
App
Temp
°C
Dew
Point
°C
Rel
Hum
%
Delta-T
°C
Wind Press
QNH
hPa
Press
MSL
hPa
Rain since
9am
mm
Dir  Spd
km/h
Gust
km/h
Spd
kts
Gust
kts
18/11:30pm 28.0 28.9 16.6 50 7.1 NW 7 13 4 7 1009.5 1007.9 0.0
18/11:00pm 28.8 28.3 16.0 45 8.0 NNW 13 19 7 10 1009.7 1008.1 0.0
18/10:30pm 29.8 28.4 14.4 39 9.4 NNW 15 20 8 11 1009.9 1008.3 0.0
18/10:00pm 30.2 29.1 13.0 34 10.3 NNW 11 17 6 9 1009.8 1008.2 0.0
18/09:30pm 30.9 28.7 10.8 29 11.6 NW 13 19 7 10 1009.6 1008.0 0.0
18/09:00pm 31.5 28.2 10.8 28 12.0 NNW 19 24 10 13 1009.2 1007.6 0.0
18/08:30pm 32.0 29.3 12.8 31 11.5 NNW 19 30 10 16 1009.0 1007.4 0.0
18/08:00pm 32.5 29.8 11.6 28 12.4 NNW 17 28 9 15 1008.5 1006.9 0.0
18/07:30pm 33.3 28.7 11.2 26 13.0 NNW 26 37 14 20 1007.8 1006.2 0.0
18/07:00pm 34.7 33.2 11.8 25 13.7 W 11 32 6 17 1007.3 1005.7 0.0
18/06:30pm 37.3 33.9 -0.9 9 19.0 S 7 11 4 6 1006.6 1005.0 0.0
18/06:00pm 38.5 35.0 -1.6 8 19.9 WNW 7 15 4 8 1006.3 1004.7 0.0
18/05:30pm 39.8 36.6 -0.6 8 20.5 WNW 6 13 3 7 1006.0 1004.5 0.0
18/05:00pm 40.0 37.2 -0.5 8 20.7 WSW 4 9 2 5 1005.9 1004.4 0.0
18/04:30pm 39.9 36.5 -0.5 8 20.6 SW 7 13 4 7 1005.8 1004.3 0.0
18/04:00pm 40.1 36.3 -0.4 8 20.7 WNW 9 17 5 9 1005.8 1004.3 0.0
18/03:30pm 40.2 36.8 -0.3 8 20.7 SSW 7 15 4 8 1005.9 1004.4 0.0
18/03:00pm 39.6 37.0 0.9 9 20.1 NNE 4 13 2 7 1006.0 1004.5 0.0
18/02:30pm 40.9 37.2 0.2 8 21.1 W 9 20 5 11 1006.5 1004.9 0.0
18/02:00pm 38.9 34.9 0.3 9 19.8 NNE 11 24 6 13 1006.9 1005.3 0.0
18/01:30pm 38.5 34.4 0.0 9 19.6 NW 11 20 6 11 1007.3 1005.7 0.0
18/01:00pm 38.3 35.2 -0.1 9 19.5 S 6 15 3 8 1007.7 1006.1 0.0
18/12:30pm 37.8 34.8 1.0 10 18.9 N 6 13 3 7 1008.1 1006.5 0.0
18/12:00pm 37.2 33.6 0.5 10 18.7 NW 9 15 5 8 1008.4 1006.8 0.0
18/11:30am 37.4 34.4 2.0 11 18.4 N 7 15 4 8 1008.7 1007.1 0.0
18/11:00am 36.3 33.4 1.2 11 18.0 S 6 11 3 6 1009.0 1007.4 0.0
18/10:30am 36.2 32.9 2.3 12 17.6 ESE 9 15 5 8 1009.3 1007.7 0.0
18/10:00am 34.8 31.7 3.4 14 16.5 ESE 9 19 5 10 1009.5 1007.9 0.0
18/09:30am 34.9 31.0 3.5 14 16.5 SSE 13 22 7 12 1009.6 1008.0 0.0
18/09:00am 33.7 31.8 9.0 22 14.1 SSE 9 26 5 14 1009.7 1008.1 0.0
18/08:30am 31.9 31.1 11.7 29 11.9 ESE 7 15 4 8 1009.7 1008.1 0.0
18/08:00am 30.2 29.7 12.1 32 10.7 SE 6 9 3 5 1009.7 1008.1 0.0
18/07:30am 28.0 29.6 16.9 51 7.0 ESE 4 6 2 3 1009.5 1007.9 0.0
18/07:00am 26.3 28.5 17.4 58 5.6 E 2 6 1 3 1009.4 1007.8 0.0
18/06:30am 24.9 26.8 17.6 64 4.6 SE 4 6 2 3 1009.1 1007.5 0.0
18/06:00am 23.5 25.4 17.7 70 3.6 ESE 4 6 2 3 1008.7 1007.1 0.0
18/05:30am 21.7 23.5 17.5 77 2.6 E 4 7 2 4 1008.4 1006.8 0.0
18/05:00am 21.7 23.1 17.3 76 2.7 E 6 9 3 5 1008.0 1006.4 0.0
18/04:30am 21.7 23.4 17.1 75 2.8 ESE 4 6 2 3 1007.6 1006.0 0.0
18/04:00am 21.9 23.2 17.1 74 3.0 ESE 6 9 3 5 1007.3 1005.7 0.0
18/03:30am 22.2 23.5 17.1 73 3.2 SE 6 7 3 4 1007.0 1005.4 0.0
18/03:00am 22.6 24.0 17.3 72 3.3 ESE 6 7 3 4 1006.9 1005.3 0.0
18/02:30am 22.9 24.2 17.1 70 3.6 SE 6 7 3 4 1006.8 1005.2 0.0
18/02:00am 23.2 24.7 16.7 67 4.0 SE 4 6 2 3 1006.8 1005.2 0.0
18/01:30am 23.8 24.7 16.1 62 4.7 ESE 6 9 3 5 1006.8 1005.2 0.0
18/01:00am 24.6 25.5 15.2 55 5.7 ESE 4 6 2 3 1007.0 1005.4 0.0
18/12:30am 25.7 26.9 14.8 51 6.6 NE 2 4 1 2 1007.0 1005.4 0.0
18/12:00am 26.3 26.6 14.4 48 7.2 N 6 7 3 4 1007.2 1005.6 0.0
 
Date/Time
WST
Temp
°C
App
Temp
°C
Dew
Point
°C
Rel
Hum
%
Delta-T
°C
Wind Press
QNH
hPa
Press
MSL
hPa
Rain since
9am
mm
Dir  Spd
km/h
Gust
km/h
Spd
kts
Gust
kts
17/11:30pm 26.8 26.9 13.9 45 7.7 N 6 6 3 3 1007.4 1005.8 0.0
17/11:00pm 27.8 27.8 14.1 43 8.3 N 7 13 4 7 1007.6 1006.0 0.0
17/10:30pm 28.4 28.1 14.3 42 8.5 NNW 9 13 5 7 1007.6 1006.0 0.0
17/10:00pm 28.6 28.4 14.8 43 8.4 N 9 17 5 9 1007.5 1005.9 0.0
17/09:30pm 29.4 28.3 11.9 34 10.2 N 9 15 5 8 1007.2 1005.6 0.0
17/09:00pm 29.1 26.0 -0.1 15 14.0 S 6 9 3 5 1006.8 1005.2 0.0
17/08:30pm 29.5 27.0 -0.8 14 14.3 S 2 4 1 2 1006.6 1005.0 0.0
17/08:00pm 30.7 28.7 0.2 14 14.9 CALM 0 0 0 0 1006.1 1004.6 0.0
17/07:30pm 32.3 29.1 -3.2 10 16.5 SW 4 4 2 2 1005.8 1004.3 0.0
17/07:00pm 33.3 29.5 -3.8 9 17.2 SSW 7 11 4 6 1005.5 1004.0 0.0
17/06:30pm 34.6 30.0 -4.4 8 18.0 SSW 11 15 6 8 1005.1 1003.6 0.0
17/06:00pm 35.7 30.4 -3.6 8 18.6 SSW 15 19 8 10 1004.7 1003.1 0.0
17/05:30pm 36.4 32.1 -4.9 7 19.2 WSW 9 15 5 8 1004.4 1002.8 0.0
17/05:00pm 37.0 33.3 -4.4 7 19.5 S 6 9 3 5 1004.2 1002.6 0.0
17/04:30pm 36.4 32.1 -4.9 7 19.2 WSW 9 17 5 9 1004.2 1002.6 0.0
17/04:00pm 36.9 31.7 -6.5 6 19.8 W 13 22 7 12 1004.2 1002.6 0.0
17/03:30pm 37.0 31.4 -6.5 6 19.8 WSW 15 24 8 13 1004.3 1002.7 0.0
17/03:00pm 36.6 31.0 -6.8 6 19.7 SSW 15 24 8 13 1004.5 1002.9 0.0
17/02:30pm 37.0 32.0 -4.4 7 19.5 SSW 13 20 7 11 1004.9 1003.3 0.0
17/02:00pm 36.3 30.3 -7.0 6 19.5 WSW 17 30 9 16 1005.4 1003.9 0.0
17/01:30pm 34.9 29.9 -4.2 8 18.2 W 13 22 7 12 1006.0 1004.5 0.0
17/01:00pm 34.5 29.3 -2.9 9 17.8 WSW 15 26 8 14 1006.4 1004.8 0.0
17/12:30pm 34.4 30.5 -1.6 10 17.4 SW 9 22 5 12 1006.8 1005.2 0.0
17/12:00pm 34.5 29.7 -2.9 9 17.7 SSW 13 20 7 11 1007.1 1005.5 0.0
17/11:30am 33.7 29.3 -2.1 10 17.1 WNW 11 28 6 15 1007.4 1005.8 0.0
17/11:00am 32.4 28.3 2.5 15 15.3 SW 13 24 7 13 1007.9 1006.3 0.0
17/10:30am 32.0 27.5 2.1 15 15.1 W 15 26 8 14 1008.1 1006.5 0.0
17/10:00am 31.0 27.0 4.7 19 13.8 SW 15 28 8 15 1008.5 1006.9 0.0
17/09:30am 30.5 26.9 5.0 20 13.4 SW 13 20 7 11 1008.7 1007.1 0.0
17/09:00am 29.8 26.8 5.8 22 12.8 SSW 11 19 6 10 1008.9 1007.3 0.0
17/08:30am 29.0 25.2 5.8 23 12.3 SSW 15 24 8 13 1009.0 1007.4 0.0
17/08:00am 28.7 24.6 6.1 24 12.0 SW 17 24 9 13 1008.9 1007.3 0.0
17/07:30am 27.8 23.8 6.6 26 11.3 SW 17 24 9 13 1008.5 1006.9 0.0
17/07:00am 26.9 23.0 6.9 28 10.7 SW 17 24 9 13 1008.3 1006.7 0.0
17/06:30am 26.2 22.6 6.8 29 10.3 SW 15 24 8 13 1007.9 1006.3 0.0
17/06:00am 25.6 22.5 7.2 31 9.8 SW 13 19 7 10 1007.5 1005.9 0.0
17/05:30am 25.4 21.9 7.1 31 9.7 WSW 15 26 8 14 1006.9 1005.3 0.0
17/05:00am 25.7 21.8 7.3 31 9.8 WSW 17 24 9 13 1006.1 1004.6 0.0
17/04:30am 25.1 23.3 9.4 37 8.6 W 9 15 5 8 1005.7 1004.2 0.0
17/04:00am 22.7 23.5 13.7 56 5.3 SE 2 6 1 3 1005.4 1003.9 0.0
17/03:30am 22.8 24.0 13.8 57 5.3 CALM 0 0 0 0 1005.1 1003.6 0.0
17/03:00am 23.7 24.2 14.1 55 5.7 NNE 4 6 2 3 1005.1 1003.6 0.0
17/02:30am 23.4 24.4 14.4 57 5.4 ENE 2 6 1 3 1005.0 1003.5 0.0
17/02:00am 23.9 24.6 14.6 56 5.6 N 4 7 2 4 1004.8 1003.2 0.0
17/01:30am 24.3 25.6 15.2 57 5.5 N 2 4 1 2 1004.7 1003.1 0.0
17/01:00am 24.9 26.0 15.5 56 5.7 NNE 4 9 2 5 1004.8 1003.2 0.0
17/12:30am 24.8 25.9 15.7 57 5.6 E 4 6 2 3 1004.9 1003.3 0.0
17/12:00am 25.6 25.9 15.9 55 6.0 NW 9 15 5 8 1005.2 1003.7 0.0

Other Formats:

Comma delimited format used in spreadsheet applications
http://www.bom.gov.au/fwo/IDW60801/IDW60801.95317.axf

JavaScript Object Notation format (JSON) in row-major order
http://www.bom.gov.au/fwo/IDW60801/IDW60801.95317.json